Wednesday, November 22, 2017, 4:08 AM EST
Back to Local

KSWF, Newburgh / Stewart

Location: New Windsor, NY, United States Lat: 41.5
Local Time: 4:08 AM EST ( 9:08 GMT) Lon: -74.1
Time Zone: US/Eastern Elev: 492 ft

Show me the last for .
Show Coded

Time T Td Feel RH Dir Speed Gust Alt SLP Vis Weather Sky Remarks
2017-11-22 03:45 37 34 - 86 - Calm - 29.95 - 10 CLR None
2017-11-22 02:45 36 34 - 93 - Calm - 29.97 - 10 CLR None
2017-11-22 01:45 36 34 - 93 - Calm - 29.97 - 10 CLR None
2017-11-22 00:45 36 32 - 86 - Calm - 29.98 - 10 CLR None
2017-11-21 23:45 37 32 - 80 - Calm - 30.00 - 10 CLR None
2017-11-21 22:45 37 32 - 80 - Calm - 30.01 - 10 CLR None
2017-11-21 21:45 43 32 - 65 - Calm - 30.02 - 10 CLR None
2017-11-21 20:45 48 32 - 53 - Calm - 30.02 - 10 CLR None
2017-11-21 19:45 48 32 - 53 - Calm - 30.03 - 10 CLR None
2017-11-21 18:45 50 32 48 49 220° 6 - 30.01 - 10 SCT100 None
2017-11-21 17:45 52 30 - 43 230° 5 - 29.99 - 10 SCT100 None
2017-11-21 15:45 57 28 - 33 200° 8 - 29.99 - 20 SCT150 None
2017-11-21 14:45 57 28 - 33 220° 14 - 29.98 - 20 SCT150 None
2017-11-21 13:45 57 28 - 33 220° 14 - 30.00 - 20 SCT150 None
2017-11-21 12:45 55 30 - 37 200° 14 - 30.01 - 20 SCT150 None
2017-11-21 11:45 52 32 - 46 190° 14 - 30.04 - 20 BKN150 None
2017-11-21 10:45 50 32 46 49 240° 9 - 30.07 - 20 CLR None
2017-11-21 09:45 46 30 - 52 - Calm - 30.08 - 20 CLR None
2017-11-21 08:45 41 28 - 60 - Calm - 30.10 - 20 CLR None
2017-11-21 07:45 30 27 - 86 - Calm - 30.10 - 20 CLR None
2017-11-21 06:45 30 25 - 80 - Calm - 30.09 - 10 CLR None
2017-11-21 05:45 32 25 - 74 - Calm - 30.09 - 10 CLR None
2017-11-21 04:45 28 25 - 86 - Calm - 30.09 - 10 CLR None

Support USWX by starting your Amazon purchase here.